createdAt,value
2022-12-31T00:00:14.661Z,14.60
2022-12-31T00:02:41.563Z,14.40
2022-12-31T00:05:08.965Z,14.27
2022-12-31T00:10:02.974Z,12.05
2022-12-31T00:12:29.803Z,12.95
2022-12-31T00:14:56.635Z,13.32
2022-12-31T00:17:23.468Z,12.63
2022-12-31T00:19:50.230Z,12.48
2022-12-31T00:22:17.073Z,12.93
2022-12-31T00:24:43.957Z,13.20
2022-12-31T00:27:10.752Z,13.88
2022-12-31T00:29:37.628Z,9.82
2022-12-31T00:32:04.552Z,15.50
2022-12-31T00:34:31.386Z,11.32
2022-12-31T00:36:58.229Z,10.35
2022-12-31T00:39:25.197Z,9.90
2022-12-31T00:41:51.964Z,11.63
2022-12-31T00:44:18.861Z,9.95
2022-12-31T00:49:11.587Z,10.73
2022-12-31T00:51:38.416Z,12.52
2022-12-31T00:54:05.568Z,11.13
2022-12-31T00:56:32.989Z,11.60
2022-12-31T00:59:00.392Z,10.52
2022-12-31T01:01:28.776Z,9.52
2022-12-31T01:04:01.320Z,11.32
2022-12-31T01:06:28.142Z,12.65
2022-12-31T01:08:55.771Z,13.38
2022-12-31T01:11:23.479Z,13.48
2022-12-31T01:13:53.345Z,12.07
2022-12-31T01:16:24.679Z,12.25
2022-12-31T01:18:52.190Z,11.32
2022-12-31T01:21:20.234Z,9.68
2022-12-31T01:23:47.725Z,9.27
2022-12-31T01:26:16.482Z,12.63
2022-12-31T01:28:43.281Z,12.35
2022-12-31T01:31:16.982Z,11.10
2022-12-31T01:33:46.301Z,8.32
2022-12-31T01:36:39.965Z,7.55
2022-12-31T01:39:08.561Z,8.38
2022-12-31T01:41:40.995Z,7.70
2022-12-31T01:44:13.308Z,7.05
2022-12-31T01:46:49.637Z,9.13
2022-12-31T01:49:22.206Z,7.55
2022-12-31T01:51:56.845Z,9.20
2022-12-31T01:54:27.518Z,8.00
2022-12-31T01:56:56.356Z,9.48
2022-12-31T01:59:26.408Z,8.88
2022-12-31T02:01:53.624Z,7.15
2022-12-31T02:04:23.039Z,7.43
2022-12-31T02:07:07.047Z,8.00
2022-12-31T02:09:36.008Z,7.18
2022-12-31T02:12:02.921Z,9.10
2022-12-31T02:14:37.682Z,6.95
2022-12-31T02:17:24.420Z,6.88
2022-12-31T02:20:03.035Z,6.82
2022-12-31T02:22:47.583Z,8.27
2022-12-31T02:25:51.581Z,8.07
2022-12-31T02:28:51.535Z,7.00
2022-12-31T02:31:25.963Z,7.65
2022-12-31T02:33:52.730Z,6.53
2022-12-31T02:36:26.313Z,6.03
2022-12-31T02:38:54.094Z,7.65
2022-12-31T02:41:39.768Z,7.03
2022-12-31T02:44:26.144Z,6.05
2022-12-31T02:47:08.267Z,7.15
2022-12-31T02:49:59.323Z,7.22
2022-12-31T02:52:32.048Z,7.13
2022-12-31T02:55:48.821Z,7.60
2022-12-31T02:59:01.643Z,6.10
2022-12-31T03:01:52.772Z,4.80
2022-12-31T03:04:33.504Z,5.82
2022-12-31T03:07:06.000Z,6.72
2022-12-31T03:09:34.493Z,7.63
2022-12-31T03:12:20.915Z,7.07
2022-12-31T03:14:47.928Z,5.85
2022-12-31T03:17:14.978Z,7.78
2022-12-31T03:20:01.090Z,7.22
2022-12-31T03:22:28.079Z,5.03
2022-12-31T03:25:19.313Z,7.07
2022-12-31T03:27:47.045Z,9.70
2022-12-31T03:30:16.293Z,7.60
2022-12-31T03:32:44.825Z,9.15
2022-12-31T03:35:13.902Z,8.30
2022-12-31T03:37:40.985Z,9.65
2022-12-31T03:40:10.377Z,8.07
2022-12-31T03:42:37.267Z,8.32
2022-12-31T03:45:05.137Z,8.25
2022-12-31T03:47:32.062Z,8.70
2022-12-31T03:49:59.000Z,8.32
2022-12-31T03:52:25.983Z,10.02
2022-12-31T03:54:52.850Z,7.68
2022-12-31T03:57:19.676Z,7.43
2022-12-31T03:59:46.533Z,6.60
2022-12-31T04:02:13.479Z,8.15
2022-12-31T04:04:40.470Z,9.80
2022-12-31T04:07:07.620Z,6.60
2022-12-31T04:09:34.449Z,8.07
2022-12-31T04:12:01.355Z,9.40
2022-12-31T04:14:28.221Z,8.68
2022-12-31T04:16:55.046Z,8.70
2022-12-31T04:19:22.072Z,7.85
2022-12-31T04:21:49.025Z,9.02
2022-12-31T04:24:15.998Z,6.65
2022-12-31T04:26:44.104Z,8.43
2022-12-31T04:29:11.636Z,8.57
2022-12-31T04:31:38.505Z,9.85
2022-12-31T04:34:05.388Z,8.05
2022-12-31T04:36:32.558Z,8.88
2022-12-31T04:38:59.386Z,6.50
2022-12-31T04:41:27.229Z,8.90
2022-12-31T04:43:56.666Z,7.00
2022-12-31T04:46:29.089Z,9.52
2022-12-31T04:48:56.266Z,7.43
2022-12-31T04:51:24.315Z,9.45
2022-12-31T04:53:51.252Z,5.95
2022-12-31T04:56:18.601Z,7.03
2022-12-31T04:58:45.632Z,8.25
2022-12-31T05:01:13.452Z,8.70
2022-12-31T05:03:40.786Z,6.03
2022-12-31T05:06:17.008Z,9.35
2022-12-31T05:08:44.220Z,7.18
2022-12-31T05:11:11.398Z,7.50
2022-12-31T05:13:38.493Z,8.27
2022-12-31T05:16:06.181Z,6.85
2022-12-31T05:18:33.890Z,8.73
2022-12-31T05:21:01.125Z,7.07
2022-12-31T05:23:28.070Z,8.68
2022-12-31T05:25:55.206Z,9.88
2022-12-31T05:28:22.178Z,8.85
2022-12-31T05:30:50.948Z,11.45
2022-12-31T05:33:18.776Z,8.82
2022-12-31T05:35:46.365Z,9.07
2022-12-31T05:38:13.444Z,7.50
2022-12-31T05:40:40.367Z,9.70
2022-12-31T05:43:07.656Z,8.00
2022-12-31T05:45:34.549Z,8.77
2022-12-31T05:48:01.500Z,9.95
2022-12-31T05:50:28.439Z,8.60
2022-12-31T05:52:55.323Z,9.32
2022-12-31T05:55:22.176Z,8.20
2022-12-31T05:57:49.173Z,10.07
2022-12-31T06:00:16.379Z,8.98
2022-12-31T06:02:43.323Z,9.73
2022-12-31T06:05:10.546Z,9.60
2022-12-31T06:07:37.380Z,11.27
2022-12-31T06:10:05.245Z,12.15
2022-12-31T06:12:32.145Z,11.02
2022-12-31T06:14:59.087Z,13.85
2022-12-31T06:17:25.917Z,9.85
2022-12-31T06:19:53.093Z,11.18
2022-12-31T06:22:19.973Z,8.50
2022-12-31T06:24:46.883Z,9.95
2022-12-31T06:27:13.724Z,12.40
2022-12-31T06:29:40.921Z,11.52
2022-12-31T06:32:08.180Z,10.43
2022-12-31T06:34:35.045Z,10.65
2022-12-31T06:37:01.962Z,8.88
2022-12-31T06:39:28.854Z,10.88
2022-12-31T06:41:55.761Z,11.60
2022-12-31T06:44:22.867Z,10.38
2022-12-31T06:46:50.702Z,12.38
2022-12-31T06:49:17.938Z,8.80
2022-12-31T06:51:46.212Z,9.02
2022-12-31T06:54:13.702Z,6.95
2022-12-31T06:56:41.552Z,10.13
2022-12-31T06:59:35.907Z,8.10
2022-12-31T07:02:21.529Z,9.77
2022-12-31T07:05:02.493Z,12.38
2022-12-31T07:07:42.959Z,14.20
2022-12-31T07:10:12.931Z,12.52
2022-12-31T07:13:02.609Z,7.28
2022-12-31T07:16:07.144Z,10.95
2022-12-31T07:18:34.268Z,9.45
2022-12-31T07:21:01.384Z,11.13
2022-12-31T07:23:28.675Z,10.00
2022-12-31T07:26:04.415Z,11.68
2022-12-31T07:28:41.727Z,10.30
2022-12-31T07:31:24.645Z,10.25
2022-12-31T07:34:07.772Z,11.98
2022-12-31T07:36:43.440Z,13.77
2022-12-31T07:39:35.353Z,11.10
2022-12-31T07:42:27.125Z,10.77
2022-12-31T07:45:20.706Z,9.88
2022-12-31T07:47:47.915Z,10.18
2022-12-31T07:50:17.242Z,9.43
2022-12-31T07:52:45.516Z,12.77
2022-12-31T07:55:12.600Z,7.97
2022-12-31T07:57:55.222Z,10.18
2022-12-31T08:00:22.457Z,8.23
2022-12-31T08:03:20.251Z,10.00
2022-12-31T08:06:14.425Z,12.82
2022-12-31T08:09:03.253Z,10.90
2022-12-31T08:11:44.009Z,9.52
2022-12-31T08:14:13.384Z,7.28
2022-12-31T08:16:40.626Z,8.27
2022-12-31T08:19:13.890Z,10.07
2022-12-31T08:21:43.717Z,10.97
2022-12-31T08:24:35.819Z,12.05
2022-12-31T08:27:20.570Z,10.60
2022-12-31T08:30:12.517Z,11.32
2022-12-31T08:32:43.305Z,11.50
2022-12-31T08:35:28.683Z,9.98
2022-12-31T08:38:35.361Z,10.82
2022-12-31T08:41:08.103Z,12.02
2022-12-31T08:44:05.895Z,13.73
2022-12-31T08:46:48.959Z,10.20
2022-12-31T08:49:16.114Z,10.07
2022-12-31T08:51:43.404Z,10.95
2022-12-31T08:54:13.394Z,12.93
2022-12-31T08:56:53.284Z,13.05
2022-12-31T08:59:29.333Z,15.07
2022-12-31T09:02:08.070Z,12.50
2022-12-31T09:04:59.284Z,10.82
2022-12-31T09:07:41.247Z,12.10
2022-12-31T09:10:17.084Z,12.90
2022-12-31T09:12:43.860Z,10.77
2022-12-31T09:15:21.156Z,12.75
2022-12-31T09:17:50.267Z,11.35
2022-12-31T09:20:23.409Z,10.85
2022-12-31T09:22:50.969Z,13.97
2022-12-31T09:25:20.169Z,13.05
2022-12-31T09:28:08.345Z,9.77
2022-12-31T09:31:00.060Z,11.55
2022-12-31T09:33:57.869Z,10.82
2022-12-31T09:36:31.767Z,10.32
2022-12-31T09:39:16.920Z,10.25
2022-12-31T09:42:17.712Z,10.82
2022-12-31T09:45:04.247Z,10.80
2022-12-31T09:47:50.515Z,11.82
2022-12-31T09:50:29.489Z,14.05
2022-12-31T09:53:34.227Z,15.45
2022-12-31T09:56:20.493Z,13.77
2022-12-31T09:59:10.390Z,11.43
2022-12-31T10:01:46.742Z,14.27
2022-12-31T10:04:31.121Z,16.33
2022-12-31T10:10:01.474Z,16.17
2022-12-31T10:12:40.220Z,13.80
2022-12-31T10:15:28.460Z,13.27
2022-12-31T10:18:16.109Z,13.80
2022-12-31T10:21:21.768Z,11.50
2022-12-31T10:24:15.670Z,12.00
2022-12-31T10:27:17.795Z,14.88
2022-12-31T10:30:15.210Z,16.80
2022-12-31T10:33:10.223Z,14.38
2022-12-31T10:35:59.552Z,14.75
2022-12-31T10:38:48.261Z,17.17
2022-12-31T10:41:51.881Z,16.40
2022-12-31T10:44:47.764Z,16.33
2022-12-31T10:47:35.980Z,17.60
2022-12-31T10:50:15.926Z,18.98
2022-12-31T10:52:48.833Z,15.55
2022-12-31T10:55:50.560Z,16.80
2022-12-31T10:59:01.710Z,16.42
2022-12-31T11:01:34.102Z,16.27
2022-12-31T11:04:29.550Z,16.00
2022-12-31T11:06:59.456Z,16.98
2022-12-31T11:09:53.747Z,17.60
2022-12-31T11:12:32.519Z,15.18
2022-12-31T11:15:02.376Z,14.52
2022-12-31T11:17:44.156Z,19.25
2022-12-31T11:20:31.970Z,15.45
2022-12-31T11:23:01.633Z,15.07
2022-12-31T11:26:09.019Z,16.80
2022-12-31T11:28:57.588Z,18.02
2022-12-31T11:31:52.508Z,20.38
2022-12-31T11:34:51.800Z,17.85
2022-12-31T11:37:21.551Z,18.08
2022-12-31T11:39:55.485Z,19.25
2022-12-31T11:45:35.141Z,19.35
2022-12-31T11:48:30.187Z,18.00
2022-12-31T11:51:09.058Z,20.45
2022-12-31T11:54:01.334Z,17.67
2022-12-31T11:56:38.763Z,21.75
2022-12-31T11:59:14.464Z,16.63
2022-12-31T12:02:11.809Z,20.80
2022-12-31T12:04:38.688Z,17.17
2022-12-31T12:07:14.038Z,17.40
2022-12-31T12:09:43.873Z,20.73
2022-12-31T12:12:11.395Z,20.90
2022-12-31T12:14:45.369Z,21.77
2022-12-31T12:19:46.657Z,21.15
2022-12-31T12:22:22.167Z,18.75
2022-12-31T12:24:56.429Z,20.70
2022-12-31T12:27:27.695Z,20.25
2022-12-31T12:29:54.599Z,20.67
2022-12-31T12:32:25.078Z,21.20
2022-12-31T12:34:52.665Z,20.45
2022-12-31T12:37:33.249Z,19.75
2022-12-31T12:40:01.787Z,20.13
2022-12-31T12:42:29.853Z,23.15
2022-12-31T12:45:14.891Z,15.48
2022-12-31T12:47:44.435Z,20.95
2022-12-31T12:50:25.826Z,15.55
2022-12-31T12:53:18.345Z,18.25
2022-12-31T12:56:22.789Z,20.92
2022-12-31T12:59:35.811Z,20.52
2022-12-31T13:02:25.276Z,16.17
2022-12-31T13:04:55.211Z,17.02
2022-12-31T13:07:42.822Z,18.67
2022-12-31T13:10:49.226Z,23.10
2022-12-31T13:13:37.470Z,16.65
2022-12-31T13:16:29.719Z,16.45
2022-12-31T13:19:00.873Z,14.05
2022-12-31T13:21:46.619Z,16.67
2022-12-31T13:24:30.552Z,16.05
2022-12-31T13:27:08.974Z,9.82
2022-12-31T13:29:37.451Z,15.13
2022-12-31T13:32:07.267Z,14.45
2022-12-31T13:34:38.903Z,16.25
2022-12-31T13:37:15.727Z,15.57
2022-12-31T13:39:47.614Z,14.73
2022-12-31T13:42:23.666Z,15.15
2022-12-31T13:45:03.928Z,11.23
2022-12-31T13:47:35.696Z,13.45
2022-12-31T13:50:33.524Z,12.18
2022-12-31T13:53:07.447Z,13.35
2022-12-31T13:58:12.966Z,17.75
2022-12-31T14:00:58.452Z,11.93
2022-12-31T14:03:42.658Z,17.42
2022-12-31T14:06:33.946Z,15.10
2022-12-31T14:09:01.191Z,15.48
2022-12-31T14:12:09.515Z,15.07
2022-12-31T14:14:57.609Z,19.85
2022-12-31T14:17:46.979Z,17.02
2022-12-31T14:20:42.579Z,15.15
2022-12-31T14:23:55.949Z,18.00
2022-12-31T14:26:35.906Z,17.75
2022-12-31T14:29:11.602Z,16.65
2022-12-31T14:31:53.183Z,16.80
2022-12-31T14:34:49.856Z,17.33
2022-12-31T14:37:37.936Z,14.07
2022-12-31T14:40:32.801Z,14.68
2022-12-31T14:43:37.442Z,14.32
2022-12-31T14:46:41.661Z,16.45
2022-12-31T14:49:40.462Z,18.48
2022-12-31T14:52:16.441Z,14.32
2022-12-31T14:54:43.246Z,18.35
2022-12-31T14:57:25.655Z,17.58
2022-12-31T14:59:58.225Z,20.98
2022-12-31T15:02:33.828Z,18.95
2022-12-31T15:05:12.726Z,14.18
2022-12-31T15:07:48.477Z,17.75
2022-12-31T15:10:36.424Z,16.00
2022-12-31T15:13:07.210Z,16.90
2022-12-31T15:16:00.150Z,20.67
2022-12-31T15:18:54.252Z,18.23
2022-12-31T15:21:29.808Z,20.38
2022-12-31T15:23:56.915Z,20.23
2022-12-31T15:26:27.214Z,22.40
2022-12-31T15:29:07.580Z,20.42
2022-12-31T15:31:36.538Z,20.98
2022-12-31T15:34:06.433Z,14.13
2022-12-31T15:36:38.247Z,19.63
2022-12-31T15:39:26.903Z,21.00
2022-12-31T15:45:05.989Z,16.33
2022-12-31T15:47:37.891Z,15.77
2022-12-31T15:50:12.405Z,16.80
2022-12-31T15:52:44.947Z,15.70
2022-12-31T15:55:41.570Z,16.75
2022-12-31T15:58:15.958Z,19.05
2022-12-31T16:01:01.983Z,19.70
2022-12-31T16:03:30.919Z,17.80
2022-12-31T16:06:03.052Z,19.83
2022-12-31T16:08:33.611Z,22.15
2022-12-31T16:11:01.241Z,22.35
2022-12-31T16:13:29.984Z,21.45
2022-12-31T16:16:04.867Z,19.42
2022-12-31T16:18:43.224Z,22.95
2022-12-31T16:21:35.336Z,22.45
2022-12-31T16:24:29.393Z,21.15
2022-12-31T16:26:59.934Z,17.73
2022-12-31T16:29:27.068Z,22.48
2022-12-31T16:31:54.589Z,15.18
2022-12-31T16:34:24.439Z,19.80
2022-12-31T16:36:59.985Z,21.80
2022-12-31T16:39:32.940Z,21.23
2022-12-31T16:42:19.909Z,20.88
2022-12-31T16:44:48.472Z,21.58
2022-12-31T16:47:38.118Z,21.10
2022-12-31T16:50:16.021Z,22.70
2022-12-31T16:52:45.958Z,19.80
2022-12-31T16:55:21.477Z,24.30
2022-12-31T16:57:55.785Z,24.30
2022-12-31T17:00:25.086Z,20.38
2022-12-31T17:03:02.389Z,21.90
2022-12-31T17:05:29.450Z,16.92
2022-12-31T17:07:57.617Z,21.23
2022-12-31T17:10:27.235Z,25.50
2022-12-31T17:15:46.570Z,22.70
2022-12-31T17:18:24.459Z,35.80
2022-12-31T17:20:55.501Z,45.22
2022-12-31T17:23:24.765Z,49.22
2022-12-31T17:26:03.645Z,49.80
2022-12-31T17:28:48.109Z,50.67
2022-12-31T17:31:57.311Z,48.47
2022-12-31T17:34:30.837Z,42.63
2022-12-31T17:37:02.218Z,38.70
2022-12-31T17:39:47.335Z,38.28
2022-12-31T17:42:27.610Z,34.55
2022-12-31T17:45:01.658Z,31.17
2022-12-31T17:50:32.075Z,30.23
2022-12-31T17:53:12.806Z,31.00
2022-12-31T17:55:42.129Z,30.48
2022-12-31T17:58:34.142Z,33.53
2022-12-31T18:01:01.846Z,31.50
2022-12-31T18:03:28.716Z,29.77
2022-12-31T18:05:55.651Z,32.33
2022-12-31T18:08:22.539Z,36.20
2022-12-31T18:10:51.221Z,38.08
2022-12-31T18:13:24.576Z,38.10
2022-12-31T18:15:52.183Z,30.52
2022-12-31T18:18:27.338Z,35.65
2022-12-31T18:20:57.685Z,39.08
2022-12-31T18:26:22.944Z,37.03
2022-12-31T18:28:50.385Z,37.75
2022-12-31T18:31:22.621Z,49.67
2022-12-31T18:33:51.074Z,48.28
2022-12-31T18:36:19.163Z,46.65
2022-12-31T18:38:46.141Z,44.63
2022-12-31T18:41:21.697Z,39.15
2022-12-31T18:43:49.115Z,35.60
2022-12-31T18:46:18.468Z,39.92
2022-12-31T18:48:45.536Z,39.53
2022-12-31T18:51:18.973Z,31.85
2022-12-31T18:53:46.166Z,31.83
2022-12-31T18:56:16.270Z,29.00
2022-12-31T18:58:45.301Z,37.38
2022-12-31T19:01:33.750Z,36.10
2022-12-31T19:04:03.823Z,38.33
2022-12-31T19:06:31.212Z,41.67
2022-12-31T19:09:00.813Z,32.25
2022-12-31T19:11:28.233Z,36.53
2022-12-31T19:13:55.206Z,29.30
2022-12-31T19:16:22.132Z,34.47
2022-12-31T19:18:49.604Z,32.58
2022-12-31T19:21:22.569Z,32.90
2022-12-31T19:23:51.801Z,42.40
2022-12-31T19:26:22.770Z,38.42
2022-12-31T19:28:50.818Z,34.28
2022-12-31T19:31:17.836Z,36.85
2022-12-31T19:33:45.098Z,35.70
2022-12-31T19:36:19.757Z,40.80
2022-12-31T19:38:47.148Z,34.38
2022-12-31T19:41:19.119Z,35.58
2022-12-31T19:43:47.167Z,40.33
2022-12-31T19:46:16.193Z,52.85
2022-12-31T19:48:43.788Z,41.85
2022-12-31T19:51:15.005Z,44.72
2022-12-31T19:53:42.090Z,40.03
2022-12-31T19:56:13.728Z,47.20
2022-12-31T19:58:40.593Z,44.47
2022-12-31T20:01:09.392Z,52.22
2022-12-31T20:03:36.380Z,43.80
2022-12-31T20:06:07.015Z,38.03
2022-12-31T20:08:34.888Z,39.40
2022-12-31T20:11:15.947Z,40.28
2022-12-31T20:13:43.815Z,39.25
2022-12-31T20:16:13.727Z,39.67
2022-12-31T20:18:42.141Z,41.38
2022-12-31T20:21:11.607Z,37.55
2022-12-31T20:23:38.784Z,38.33
2022-12-31T20:26:05.863Z,37.75
2022-12-31T20:28:32.749Z,38.58
2022-12-31T20:31:04.102Z,41.60
2022-12-31T20:33:31.109Z,35.55
2022-12-31T20:36:05.493Z,38.63
2022-12-31T20:38:32.627Z,36.15
2022-12-31T20:41:07.439Z,34.53
2022-12-31T20:43:35.020Z,32.55
2022-12-31T20:46:18.954Z,30.77
2022-12-31T20:48:47.443Z,36.22
2022-12-31T20:51:15.962Z,30.30
2022-12-31T20:53:55.480Z,31.67
2022-12-31T20:56:23.411Z,31.40
2022-12-31T20:58:50.842Z,34.65
2022-12-31T21:01:18.541Z,30.85
2022-12-31T21:06:35.658Z,57.55
2022-12-31T21:09:04.889Z,61.88
2022-12-31T21:11:50.364Z,70.97
2022-12-31T21:14:17.508Z,58.03
2022-12-31T21:16:44.395Z,64.32
2022-12-31T21:19:11.504Z,59.95
2022-12-31T21:21:38.467Z,59.95
2022-12-31T21:24:05.672Z,55.95
2022-12-31T21:26:32.706Z,55.75
2022-12-31T21:28:59.747Z,52.20
2022-12-31T21:31:26.642Z,56.10
2022-12-31T21:33:53.553Z,67.75
2022-12-31T21:36:20.516Z,70.53
2022-12-31T21:38:47.380Z,58.92
2022-12-31T21:41:35.176Z,56.08
2022-12-31T21:44:02.340Z,63.35
2022-12-31T21:46:29.574Z,63.20
2022-12-31T21:49:00.823Z,47.85
2022-12-31T21:51:29.481Z,45.72
2022-12-31T21:53:57.008Z,40.83
2022-12-31T21:56:24.183Z,54.42
2022-12-31T21:59:15.450Z,43.45
2022-12-31T22:02:01.526Z,43.22
2022-12-31T22:05:00.916Z,42.30
2022-12-31T22:07:15.938Z,49.72
2022-12-31T22:09:42.773Z,48.97
2022-12-31T22:12:09.699Z,50.45
2022-12-31T22:14:36.536Z,52.78
2022-12-31T22:17:03.392Z,54.83
2022-12-31T22:19:30.249Z,51.97
2022-12-31T22:21:57.060Z,43.15
2022-12-31T22:24:23.901Z,44.70
2022-12-31T22:26:52.213Z,35.33
2022-12-31T22:29:19.803Z,33.55
2022-12-31T22:31:46.734Z,32.95
2022-12-31T22:34:13.656Z,42.35
2022-12-31T22:36:40.638Z,40.97
2022-12-31T22:39:07.498Z,36.33
2022-12-31T22:41:34.952Z,32.65
2022-12-31T22:44:04.572Z,28.95
2022-12-31T22:46:32.555Z,33.15
2022-12-31T22:49:01.017Z,105.50
2022-12-31T22:51:56.391Z,143.80
2022-12-31T22:54:15.867Z,59.00
2022-12-31T22:56:42.693Z,63.20
2022-12-31T22:59:09.785Z,114.72
2022-12-31T23:01:37.304Z,176.38
2022-12-31T23:04:04.761Z,243.18
2022-12-31T23:06:32.159Z,256.77
2022-12-31T23:09:17.724Z,421.88
2022-12-31T23:11:44.673Z,527.33
2022-12-31T23:14:34.861Z,457.77
2022-12-31T23:17:29.546Z,268.85
2022-12-31T23:20:20.424Z,256.02
2022-12-31T23:23:05.865Z,196.80
2022-12-31T23:25:34.491Z,191.10
2022-12-31T23:28:01.516Z,182.10
2022-12-31T23:30:28.753Z,209.63
2022-12-31T23:32:55.613Z,254.90
2022-12-31T23:35:22.826Z,233.73
2022-12-31T23:37:49.803Z,261.65
2022-12-31T23:40:21.230Z,232.88
2022-12-31T23:42:51.893Z,235.40
2022-12-31T23:45:18.775Z,191.73
2022-12-31T23:47:45.617Z,178.65
2022-12-31T23:50:12.561Z,193.57
2022-12-31T23:52:39.392Z,163.68
2022-12-31T23:55:06.423Z,142.05
2022-12-31T23:57:33.244Z,138.90
